Waynesville, GA

8:03 PM EDT on August 28, 2015 (GMT -0400)
KGAHORTE3 | | Change Station
CLOSE
Current Station
Personal Weather Station
Location: Hortense, GA
Elevation: 56 ft
Nearby Weather Stations

Elev 56 ft 31.34 °N, 81.96 °W | Updated 3 seconds ago

Partly Cloudy
Partly Cloudy
80.1 °F
Feels Like 78 °F
N
0.0
Wind Variable Wind from North
Gusts 0.0 mph

Today
High -- | Low -- °F
--% Chance of Precip.
Yesterday
High -- | Low -- °F
Precip. -- in
7:00 AM 7:55 PM
Waxing Gibbous, 99% visible
Pressure 30.08 in
Visibility 10.0 miles
Clouds Scattered Clouds 2400 ft
Scattered Clouds 3100 ft
Scattered Clouds 5000 ft
Heat Index 78 °F
Dew Point Not available.
Humidity Not available.
Rainfall 0.00 in
Snow Depth Not available.
UV 0 out of 12
Pollen 6.10 out of 12
Air Quality Not available.
Flu Activity Not available.
METAR KBQK 282355Z AUTO 04003KT 10SM SCT024 SCT031 SCT050 25/24 A3008 RMK AO1
Pressure 30.08 in
Visibility 10.0 miles
Clouds Scattered Clouds 2400 ft
Scattered Clouds 3100 ft
Scattered Clouds 5000 ft
Heat Index 78 °F
Dew Point Not available.
Humidity Not available.
Rainfall 0.00 in
Snow Depth Not available.
UV 0 out of 12
Pollen 6.10 out of 12
Air Quality Not available.
Flu Activity Not available.
METAR KBQK 282355Z AUTO 04003KT 10SM SCT024 SCT031 SCT050 25/24 A3008 RMK AO1
Erika has become very unorganized in the face of strong wind shear in the eastern Caribbean Sea. The storm will pass directly over mountainous Hispaniola today, likely weakening it further. If the storm remains intact, it could reach an area favorable for strengthening before moving onto Florida by early next week. Follow the live blog

10-Day Weather Forecast

×

Almanac

Astronomy

Aug. 28, 2015 Rise Set
Actual Time
Civil Twilight
Nautical Twilight
Astronomical Twilight
Moon
Length of Visible Light
Length of Day
Tomorrow will be .
, % of the Moon is Illuminated

Today's Extremes

State Highs State Lows

Community

WunderPhotos

Upload Photos

1,850,538 photos uploaded!

WunderBlogs® & News

Nearby

Air Quality

  Air Quality AQ Index Pollutant
Not available.

Snow Depth

Station Depth Elevation

Earthquake Activity

City Distance Mag. Time & Date
Minimum magnitude displayed is 2.5.

Coastal Water Temperatures

Place Temperature

Stations

Nearby Weather Stations

Station Location Temp. Windchill Dew Point Humidity Wind Precip. Elev Updated Type